Time;durP1;ratioP1;P1;durP2;ratioP2;P2;SDS_P1;SDS_P2;PMS_P1;PMS_P2;Temp;Humidity;BMP_temperature;BMP_pressure;BME280_temperature;BME280_humidity;BME280_pressure;Samples;Min_cycle;Max_cycle;Signal;HPM_P1;HPM_P2
2021/10/07 00:01:55;;;;;;;13.13;10.23;;;;;;;11.83;85.34;93529.78;5013187;28;20116;-83
2021/10/07 00:04:21;;;;;;;18.20;12.07;;;;;;;11.82;85.37;93528.22;5012843;28;20502;-83
2021/10/07 00:06:48;;;;;;;15.40;11.18;;;;;;;11.73;84.82;93514.00;5013007;28;20056;-83
2021/10/07 00:09:15;;;;;;;16.15;10.65;;;;;;;11.11;84.56;93427.94;5012961;28;20064;-84
2021/10/07 00:11:44;;;;;;;15.98;10.15;;;;;;;11.85;84.73;93529.56;5012613;28;20046;-83
2021/10/07 00:14:12;;;;;;;17.90;10.82;;;;;;;11.74;84.21;93529.25;5013028;28;20140;-83
2021/10/07 00:16:39;;;;;;;14.48;9.75;;;;;;;11.33;85.73;93476.47;5012717;28;20057;-83
2021/10/07 00:19:06;;;;;;;14.82;10.50;;;;;;;11.60;85.33;93518.25;5013054;28;20054;-82
2021/10/07 00:21:33;;;;;;;13.43;9.30;;;;;;;11.57;85.52;93505.78;5012750;28;20108;-82
2021/10/07 00:26:45;;;;;;;14.40;10.40;;;;;;;11.65;85.74;93488.50;5012048;28;20414;-82
2021/10/07 00:29:36;;;;;;;14.27;9.70;;;;;;;11.62;85.62;93500.03;5012536;28;20054;-84
2021/10/07 00:32:07;;;;;;;16.30;10.57;;;;;;;11.43;85.72;93473.44;5012240;28;20054;-83
2021/10/07 00:34:45;;;;;;;14.05;10.23;;;;;;;11.49;86.13;93491.41;5013022;28;20140;-84
2021/10/07 00:37:22;;;;;;;12.77;9.10;;;;;;;11.64;85.99;93505.75;5012985;28;20470;-83
2021/10/07 00:39:48;;;;;;;13.48;10.07;;;;;;;11.61;86.20;93506.16;5013180;28;20046;-83
2021/10/07 00:42:16;;;;;;;13.75;9.52;;;;;;;11.09;86.59;93441.00;5013044;28;20104;-83
2021/10/07 00:44:45;;;;;;;15.20;10.90;;;;;;;11.51;86.51;93506.63;5012963;28;20046;-83
2021/10/07 00:47:13;;;;;;;15.63;10.32;;;;;;;11.31;86.53;93486.97;5012841;28;20510;-83
2021/10/07 00:49:39;;;;;;;13.68;10.23;;;;;;;11.35;87.19;93488.13;5011946;28;20052;-83
2021/10/07 00:52:07;;;;;;;15.23;9.73;;;;;;;11.20;87.45;93472.97;5012401;28;20072;-83
2021/10/07 00:54:35;;;;;;;16.60;10.60;;;;;;;11.32;87.27;93503.97;5011207;28;20486;-85
2021/10/07 00:57:04;;;;;;;16.23;10.60;;;;;;;10.79;88.44;93440.78;5012117;28;20050;-85
2021/10/07 00:59:33;;;;;;;15.52;10.13;;;;;;;10.76;88.32;93457.38;5012669;28;20053;-85
2021/10/07 01:02:05;;;;;;;17.98;11.55;;;;;;;11.14;88.34;93498.72;5012249;28;20057;-83
2021/10/07 01:04:32;;;;;;;12.30;9.45;;;;;;;11.04;89.04;93497.38;5012067;28;20054;-84
2021/10/07 01:07:00;;;;;;;14.10;9.80;;;;;;;10.66;89.43;93449.31;5011930;28;20466;-84
2021/10/07 01:09:29;;;;;;;13.93;9.95;;;;;;;10.54;89.11;93439.69;5012086;28;20073;-84
2021/10/07 01:11:56;;;;;;;13.77;9.57;;;;;;;10.85;89.10;93478.50;5014059;28;20056;-84
2021/10/07 01:14:35;;;;;;;12.85;9.38;;;;;;;10.37;89.42;93408.47;5028784;28;20084;-84
2021/10/07 01:17:02;;;;;;;13.82;10.43;;;;;;;10.66;89.82;93472.44;5018775;28;20375;-83
2021/10/07 01:19:30;;;;;;;14.55;10.30;;;;;;;10.40;90.43;93443.25;5011613;28;20046;-84
2021/10/07 01:21:58;;;;;;;16.58;9.75;;;;;;;10.33;90.55;93448.41;5011867;28;20065;-84
2021/10/07 01:24:25;;;;;;;14.30;10.27;;;;;;;10.16;90.75;93441.16;5011747;28;20042;-84
2021/10/07 01:26:52;;;;;;;13.93;10.02;;;;;;;10.50;91.02;93497.56;5011774;28;20186;-84
2021/10/07 01:29:19;;;;;;;13.43;10.25;;;;;;;10.46;91.35;93501.53;5011333;28;20823;-84
2021/10/07 01:31:46;;;;;;;13.05;9.77;;;;;;;10.37;91.78;93495.03;5011673;28;20071;-84
2021/10/07 01:34:12;;;;;;;13.80;10.52;;;;;;;10.23;92.16;93495.03;5011414;28;20041;-84
2021/10/07 01:36:39;;;;;;;16.50;10.80;;;;;;;10.10;92.25;93475.28;5011119;28;20524;-84
2021/10/07 01:39:07;;;;;;;13.88;10.35;;;;;;;10.13;93.19;93486.94;5011139;28;20060;-84
2021/10/07 01:41:34;;;;;;;14.65;10.63;;;;;;;9.56;92.95;93405.28;5011137;28;20489;-84
2021/10/07 01:44:01;;;;;;;13.27;9.70;;;;;;;9.74;93.92;93428.56;5011261;28;20057;-83
2021/10/07 01:46:28;;;;;;;15.43;11.40;;;;;;;10.11;93.62;93486.38;5011187;28;20509;-83
2021/10/07 01:48:55;;;;;;;16.08;11.20;;;;;;;9.91;94.02;93458.97;5011323;28;20068;-84
2021/10/07 01:51:21;;;;;;;14.80;10.45;;;;;;;10.00;93.41;93472.38;5010797;28;20057;-83
2021/10/07 01:53:48;;;;;;;12.45;9.57;;;;;;;10.07;93.06;93495.44;5010976;28;20045;-84
2021/10/07 01:56:17;;;;;;;16.73;10.60;;;;;;;9.99;93.39;93496.44;5010743;28;20050;-84
2021/10/07 01:58:43;;;;;;;14.65;10.63;;;;;;;9.75;93.52;93484.03;5011201;28;20057;-84
2021/10/07 02:01:10;;;;;;;13.23;9.80;;;;;;;9.94;93.93;93503.94;5010870;28;20544;-84
2021/10/07 02:03:37;;;;;;;14.75;10.60;;;;;;;9.92;94.05;93508.47;5010664;28;20516;-84
2021/10/07 02:06:04;;;;;;;15.85;11.18;;;;;;;9.49;94.13;93433.50;5011028;28;20386;-84
2021/10/07 02:08:31;;;;;;;16.70;10.48;;;;;;;9.30;95.06;93414.56;5011229;28;20050;-84
2021/10/07 02:10:58;;;;;;;15.27;10.63;;;;;;;9.41;95.45;93433.69;5010509;28;20050;-85
2021/10/07 02:13:26;;;;;;;16.10;10.43;;;;;;;9.75;95.81;93481.47;5010548;28;20046;-85
2021/10/07 02:15:53;;;;;;;14.25;10.73;;;;;;;9.66;95.66;93477.50;5010743;28;20100;-85
2021/10/07 02:18:20;;;;;;;15.05;10.48;;;;;;;9.38;95.88;93440.00;5010520;28;20056;-85
2021/10/07 02:20:46;;;;;;;14.00;10.40;;;;;;;9.70;96.45;93483.81;5010455;28;20046;-85
2021/10/07 02:23:13;;;;;;;14.20;10.48;;;;;;;9.33;95.71;93434.69;5010779;28;20053;-84
2021/10/07 02:25:40;;;;;;;14.98;10.05;;;;;;;9.49;95.57;93456.56;5010170;28;20489;-84
2021/10/07 02:28:07;;;;;;;13.75;10.40;;;;;;;9.64;96.03;93476.91;5010524;28;20052;-85
2021/10/07 02:30:35;;;;;;;13.68;11.38;;;;;;;9.11;98.49;93409.22;5010183;28;20064;-84
2021/10/07 02:33:03;;;;;;;15.40;10.82;;;;;;;9.34;98.65;93442.19;5010151;28;20049;-83
2021/10/07 02:35:29;;;;;;;15.07;11.63;;;;;;;9.30;98.53;93447.91;5010258;28;20061;-83
2021/10/07 02:37:56;;;;;;;16.30;10.35;;;;;;;9.49;98.98;93477.09;5010192;28;20061;-83
2021/10/07 02:40:23;;;;;;;17.92;11.57;;;;;;;9.12;99.00;93427.94;5010762;28;20049;-82
2021/10/07 02:42:50;;;;;;;16.13;11.30;;;;;;;9.42;99.26;93476.28;5010908;28;20421;-82
2021/10/07 02:45:19;;;;;;;16.75;11.43;;;;;;;9.11;97.53;93429.72;5010004;28;20050;-82
2021/10/07 02:47:47;;;;;;;17.08;11.05;;;;;;;9.46;97.55;93485.97;5010141;28;20527;-84
2021/10/07 02:50:16;;;;;;;15.05;11.57;;;;;;;9.41;97.76;93472.16;5010089;28;20058;-83
2021/10/07 02:52:43;;;;;;;16.60;11.63;;;;;;;8.89;98.92;93408.59;5009830;28;20485;-84
2021/10/07 02:55:10;;;;;;;14.90;11.18;;;;;;;9.27;99.22;93477.28;5009922;28;20053;-84
2021/10/07 02:57:36;;;;;;;16.17;11.25;;;;;;;8.67;98.06;93395.94;5010338;28;20414;-84
2021/10/07 03:00:05;;;;;;;15.88;11.50;;;;;;;8.77;98.42;93404.03;5009652;28;20041;-83
2021/10/07 03:02:32;;;;;;;19.05;13.23;;;;;;;8.81;98.32;93399.31;5009672;28;20049;-83
2021/10/07 03:05:00;;;;;;;15.82;12.38;;;;;;;9.29;99.22;93471.94;5010087;28;20053;-84
2021/10/07 03:07:27;;;;;;;15.18;11.73;;;;;;;9.26;98.79;93473.09;5009802;28;20050;-83
2021/10/07 03:09:53;;;;;;;28.55;18.20;;;;;;;9.21;100.00;93470.34;5009633;28;20054;-84
2021/10/07 03:12:20;;;;;;;19.65;13.65;;;;;;;8.76;100.00;93434.97;5009493;28;20061;-83
2021/10/07 03:14:47;;;;;;;24.92;17.08;;;;;;;8.91;100.00;93447.63;5010259;28;20046;-82
2021/10/07 03:17:16;;;;;;;23.10;15.48;;;;;;;9.01;100.00;93473.66;5009269;28;20042;-82
2021/10/07 03:19:44;;;;;;;22.13;15.48;;;;;;;8.98;100.00;93465.56;5009660;28;20138;-83
2021/10/07 03:22:13;;;;;;;19.95;15.27;;;;;;;9.13;100.00;93489.28;5009526;28;20045;-83
2021/10/07 03:24:40;;;;;;;20.48;14.40;;;;;;;9.18;100.00;93496.38;5009617;28;20413;-83
2021/10/07 03:27:07;;;;;;;18.05;14.40;;;;;;;9.17;100.00;93497.34;5009689;28;20399;-83
2021/10/07 03:29:34;;;;;;;17.15;12.68;;;;;;;9.12;100.00;93490.22;5009477;28;20046;-82
2021/10/07 03:32:00;;;;;;;18.90;13.18;;;;;;;8.90;100.00;93451.16;5009289;28;20050;-83
2021/10/07 03:34:28;;;;;;;15.80;11.75;;;;;;;8.64;99.79;93409.09;5009917;28;20417;-83
2021/10/07 03:36:55;;;;;;;16.73;11.57;;;;;;;9.11;99.51;93482.75;5009333;28;20050;-85
2021/10/07 03:39:23;;;;;;;18.25;13.02;;;;;;;8.68;100.00;93430.81;5009451;28;20057;-84
2021/10/07 03:41:50;;;;;;;17.85;13.88;;;;;;;8.53;100.00;93424.03;5009311;28;20046;-85
2021/10/07 03:44:16;;;;;;;17.05;13.23;;;;;;;8.85;100.00;93479.94;5009403;28;20054;-85
2021/10/07 03:46:43;;;;;;;19.42;14.75;;;;;;;8.10;100.00;93401.19;5009122;28;20046;-85
2021/10/07 03:49:10;;;;;;;21.02;15.48;;;;;;;7.80;100.00;93356.19;5009612;28;20117;-85
2021/10/07 03:51:37;;;;;;;22.23;15.85;;;;;;;8.21;100.00;93428.00;5009146;28;20049;-85
2021/10/07 03:54:04;;;;;;;19.85;15.50;;;;;;;7.80;100.00;93384.31;5009631;28;20042;-85
2021/10/07 03:56:32;;;;;;;20.88;14.60;;;;;;;7.85;100.00;93396.53;5009363;28;20054;-85
2021/10/07 03:58:59;;;;;;;21.70;15.98;;;;;;;8.04;100.00;93468.47;5009361;28;20365;-85
2021/10/07 04:01:26;;;;;;;20.65;15.60;;;;;;;7.83;100.00;93445.28;5009408;28;20410;-85
2021/10/07 04:03:53;;;;;;;23.00;17.23;;;;;;;7.51;100.00;93398.88;5009435;28;20058;-85
2021/10/07 04:06:20;;;;;;;22.45;17.50;;;;;;;7.80;100.00;93411.63;5009062;28;20519;-84
2021/10/07 04:08:47;;;;;;;21.70;16.35;;;;;;;8.07;100.00;93429.72;5009296;28;20076;-84
2021/10/07 04:11:14;;;;;;;22.55;15.85;;;;;;;8.23;100.00;93414.03;5008946;28;20050;-84
2021/10/07 04:13:42;;;;;;;23.63;16.38;;;;;;;8.47;100.00;93431.69;5009221;28;20076;-84
2021/10/07 04:16:09;;;;;;;22.48;15.30;;;;;;;8.37;100.00;93426.91;5008987;28;20501;-84
2021/10/07 04:18:36;;;;;;;24.75;17.40;;;;;;;8.35;100.00;93426.31;5009391;28;20054;-84
2021/10/07 04:21:04;;;;;;;21.02;15.63;;;;;;;8.46;100.00;93419.88;5008801;28;20046;-84
2021/10/07 04:23:30;;;;;;;23.73;15.73;;;;;;;8.64;100.00;93422.72;5009318;28;20050;-84
2021/10/07 04:25:57;;;;;;;22.33;16.13;;;;;;;8.76;100.00;93430.66;5008880;28;20057;-83
2021/10/07 04:28:24;;;;;;;21.35;15.90;;;;;;;8.79;100.00;93414.88;5009100;28;20046;-83
2021/10/07 04:30:52;;;;;;;21.45;16.38;;;;;;;8.91;100.00;93420.22;5012257;28;20060;-83
2021/10/07 04:33:19;;;;;;;29.58;18.42;;;;;;;8.91;100.00;93409.97;5012795;28;20046;-83
2021/10/07 04:35:46;;;;;;;26.17;17.23;;;;;;;9.16;100.00;93439.41;5013211;28;20418;-83
2021/10/07 04:38:13;;;;;;;21.58;14.68;;;;;;;9.19;100.00;93449.25;5013774;28;20050;-83
2021/10/07 04:40:40;;;;;;;22.83;16.38;;;;;;;9.03;100.00;93409.41;5022885;28;20052;-83
2021/10/07 04:43:07;;;;;;;23.85;15.88;;;;;;;9.30;100.00;93445.34;5021379;28;20050;-83
2021/10/07 04:45:34;;;;;;;19.95;14.68;;;;;;;9.34;100.00;93449.88;5012427;28;20092;-83
2021/10/07 04:48:02;;;;;;;20.33;14.18;;;;;;;9.35;100.00;93450.63;5012006;28;20054;-84
2021/10/07 04:50:29;;;;;;;20.95;14.20;;;;;;;9.38;100.00;93444.34;5012282;28;20052;-84
2021/10/07 04:52:56;;;;;;;19.13;13.27;;;;;;;9.42;100.00;93446.31;5011980;28;20053;-84
2021/10/07 04:55:23;;;;;;;18.85;13.93;;;;;;;9.28;100.00;93419.09;5011868;28;20041;-83
2021/10/07 04:57:50;;;;;;;19.65;14.05;;;;;;;9.48;100.00;93444.75;5012417;28;20046;-82
2021/10/07 05:00:17;;;;;;;23.88;15.38;;;;;;;9.51;100.00;93435.88;5012339;28;20042;-82
2021/10/07 05:02:45;;;;;;;20.95;14.75;;;;;;;9.06;100.00;93356.00;5011623;28;20512;-83
2021/10/07 05:05:14;;;;;;;21.85;15.25;;;;;;;9.47;100.00;93420.88;5012006;28;20511;-82
2021/10/07 05:07:43;;;;;;;23.65;15.13;;;;;;;9.52;100.00;93430.53;5011651;28;20054;-83
2021/10/07 05:10:11;;;;;;;23.40;16.35;;;;;;;9.39;100.00;93405.69;5012326;28;20148;-83
2021/10/07 05:12:40;;;;;;;22.50;15.13;;;;;;;9.61;100.00;93424.25;5012044;28;20382;-82
2021/10/07 05:15:08;;;;;;;22.63;16.98;;;;;;;9.49;100.00;93402.72;5012018;28;20356;-84
2021/10/07 05:17:35;;;;;;;20.58;16.00;;;;;;;9.36;100.00;93375.34;5011881;28;20060;-82
2021/10/07 05:20:02;;;;;;;23.85;15.20;;;;;;;9.71;100.00;93423.03;5011727;28;20054;-83
2021/10/07 05:22:31;;;;;;;25.90;15.80;;;;;;;9.74;100.00;93415.75;5011862;28;20042;-83
2021/10/07 05:24:58;;;;;;;23.85;16.65;;;;;;;9.59;100.00;93397.97;5011762;28;20049;-83
2021/10/07 05:27:24;;;;;;;24.48;17.95;;;;;;;9.78;100.00;93423.84;5011781;28;20395;-83
2021/10/07 05:29:51;;;;;;;21.50;16.45;;;;;;;9.80;100.00;93418.47;5011690;28;20048;-85
2021/10/07 05:32:18;;;;;;;24.38;17.77;;;;;;;9.41;100.00;93367.84;5011353;28;20418;-85
2021/10/07 05:34:45;;;;;;;29.17;19.95;;;;;;;9.37;100.00;93379.47;5011638;28;20058;-84
2021/10/07 05:37:12;;;;;;;24.67;18.80;;;;;;;9.63;100.00;93426.63;5011234;28;20045;-84
2021/10/07 05:39:40;;;;;;;24.05;16.88;;;;;;;9.80;100.00;93437.25;5011056;28;20599;-84
2021/10/07 05:42:08;;;;;;;26.83;18.90;;;;;;;9.84;100.00;93417.09;5007956;28;20050;-84
2021/10/07 05:44:35;;;;;;;28.52;18.63;;;;;;;10.08;100.00;93423.38;5009645;28;20045;-84
2021/10/07 05:47:02;;;;;;;24.52;16.52;;;;;;;10.25;100.00;93433.22;5010968;28;20412;-85
2021/10/07 05:49:29;;;;;;;25.88;17.45;;;;;;;10.13;100.00;93379.13;5011057;28;20050;-85
2021/10/07 05:51:56;;;;;;;22.27;15.40;;;;;;;10.52;100.00;93417.75;5011241;28;20172;-85
2021/10/07 05:54:24;;;;;;;21.75;14.20;;;;;;;9.99;100.00;93379.19;5010721;28;20041;-85
2021/10/07 05:56:52;;;;;;;22.13;14.48;;;;;;;10.38;100.00;93432.41;5011045;28;20050;-85
2021/10/07 05:59:19;;;;;;;21.30;14.23;;;;;;;10.27;100.00;93415.81;5010859;28;20858;-85
2021/10/07 06:01:46;;;;;;;18.75;13.38;;;;;;;10.06;100.00;93368.91;5011053;28;20092;-85
2021/10/07 06:04:12;;;;;;;17.13;13.55;;;;;;;10.61;100.00;93438.88;5010901;28;20048;-85
2021/10/07 06:06:39;;;;;;;18.83;14.30;;;;;;;10.83;99.71;93447.06;5010830;28;20049;-85
2021/10/07 06:09:07;;;;;;;19.80;15.00;;;;;;;10.38;100.00;93396.44;5010945;28;20417;-86
2021/10/07 06:11:35;;;;;;;19.88;14.05;;;;;;;10.13;100.00;93390.19;5010460;28;20058;-88
2021/10/07 06:14:05;;;;;;;20.13;13.48;;;;;;;10.09;100.00;93349.75;4985247;28;20069;-87
2021/10/07 06:16:33;;;;;;;22.60;14.40;;;;;;;10.70;99.61;93409.38;4990922;28;20414;-88
2021/10/07 06:19:02;;;;;;;30.45;16.85;;;;;;;10.81;98.71;93407.94;4991018;28;20173;-85
2021/10/07 06:21:29;;;;;;;24.73;14.45;;;;;;;11.13;99.11;93427.72;4990881;28;20133;-85
2021/10/07 06:23:56;;;;;;;26.42;15.40;;;;;;;11.48;97.02;93458.94;4991116;28;20430;-84
2021/10/07 06:26:23;;;;;;;23.33;14.90;;;;;;;11.65;96.65;93462.78;4990780;28;20054;-85
2021/10/07 06:28:50;;;;;;;23.65;15.73;;;;;;;11.85;95.76;93465.22;4990901;28;20453;-83
2021/10/07 06:31:19;;;;;;;19.45;13.35;;;;;;;11.62;94.71;93410.00;4990866;28;20073;-84
2021/10/07 06:33:47;;;;;;;22.42;14.88;;;;;;;11.81;93.25;93415.16;4990586;28;20572;-84
2021/10/07 06:36:14;;;;;;;34.15;25.58;;;;;;;11.92;93.70;93413.66;4990784;28;20117;-84
2021/10/07 06:38:41;;;;;;;27.50;16.65;;;;;;;12.14;93.67;93458.63;4990373;28;20490;-85
2021/10/07 06:41:08;;;;;;;25.45;15.27;;;;;;;11.96;95.64;93433.66;4990811;28;20050;-84
2021/10/07 06:43:35;;;;;;;24.65;16.10;;;;;;;11.74;96.64;93439.19;4990856;28;20055;-84
2021/10/07 06:46:01;;;;;;;22.67;15.13;;;;;;;11.49;95.10;93385.16;4990526;28;20057;-85
2021/10/07 06:48:30;;;;;;;27.08;16.20;;;;;;;11.99;95.27;93465.91;4990461;28;20058;-85
2021/10/07 06:50:57;;;;;;;22.90;15.10;;;;;;;11.54;94.82;93400.75;4990227;28;20100;-85
2021/10/07 06:53:24;;;;;;;22.80;14.13;;;;;;;11.95;93.92;93457.03;4990056;28;20417;-85
2021/10/07 06:55:51;;;;;;;16.75;11.32;;;;;;;11.57;96.20;93456.13;4990178;28;20050;-85
2021/10/07 06:58:18;;;;;;;20.60;12.38;;;;;;;11.28;96.05;93404.28;4990631;28;20058;-85
2021/10/07 07:00:45;;;;;;;17.65;11.48;;;;;;;11.26;98.42;93460.28;4990384;28;20054;-84
2021/10/07 07:03:12;;;;;;;18.52;13.40;;;;;;;11.16;98.29;93446.09;4990320;28;20104;-84
2021/10/07 07:05:40;;;;;;;22.48;13.25;;;;;;;11.25;98.58;93438.91;4989978;28;20064;-86
2021/10/07 07:08:07;;;;;;;23.98;14.15;;;;;;;11.48;97.73;93460.75;4990008;28;20391;-85
2021/10/07 07:10:34;;;;;;;17.58;11.75;;;;;;;11.12;97.65;93408.16;4990322;28;20046;-87
2021/10/07 07:13:05;;;;;;;16.65;11.63;;;;;;;11.06;97.20;93405.44;4989672;28;20664;-87
2021/10/07 07:15:32;;;;;;;21.33;11.73;;;;;;;11.29;97.80;93440.09;4990246;28;20050;-88
2021/10/07 07:17:59;;;;;;;16.92;11.52;;;;;;;11.35;98.48;93462.41;4990060;28;20085;-87
2021/10/07 07:20:26;;;;;;;19.25;12.77;;;;;;;10.56;98.51;93354.72;4989813;28;20054;-85
2021/10/07 07:22:54;;;;;;;17.65;12.07;;;;;;;11.22;98.67;93470.97;4989594;28;20409;-85
2021/10/07 07:25:21;;;;;;;17.50;11.60;;;;;;;11.18;97.60;93461.31;4989935;28;20054;-84
2021/10/07 07:27:48;;;;;;;17.50;12.45;;;;;;;11.36;96.82;93465.78;4990181;28;20592;-84
2021/10/07 07:30:15;;;;;;;21.02;13.15;;;;;;;11.62;96.37;93482.81;4989912;28;20569;-84
2021/10/07 07:32:42;;;;;;;18.95;12.55;;;;;;;11.73;95.82;93489.06;4989669;28;20068;-84
2021/10/07 07:35:10;;;;;;;16.85;11.55;;;;;;;11.79;94.90;93479.72;4989851;28;20086;-87
2021/10/07 07:37:37;;;;;;;18.25;12.40;;;;;;;11.59;96.98;93479.88;4989802;28;20058;-85
2021/10/07 07:40:07;;;;;;;20.35;14.32;;;;;;;11.52;96.32;93453.41;4989581;28;20502;-84
2021/10/07 07:42:34;;;;;;;22.23;13.43;;;;;;;11.40;97.19;93466.94;4990107;28;20145;-85
2021/10/07 07:45:00;;;;;;;19.20;12.50;;;;;;;11.40;96.40;93468.72;4989843;28;20410;-84
2021/10/07 07:47:27;;;;;;;18.50;11.73;;;;;;;11.45;95.90;93479.16;4989641;28;20055;-84
2021/10/07 07:49:54;;;;;;;15.23;10.50;;;;;;;11.50;95.32;93487.03;4990012;28;20050;-84
2021/10/07 07:52:22;;;;;;;14.63;10.85;;;;;;;11.30;96.19;93482.03;4989693;28;20488;-85
2021/10/07 07:54:49;;;;;;;16.63;12.27;;;;;;;11.20;96.68;93472.22;4989721;28;20057;-85
2021/10/07 07:57:18;;;;;;;17.45;12.15;;;;;;;11.26;96.60;93481.66;4989634;28;20495;-85
2021/10/07 07:59:44;;;;;;;18.33;12.18;;;;;;;11.33;96.26;93489.31;4989956;28;20047;-85
2021/10/07 08:02:15;;;;;;;14.55;10.70;;;;;;;11.45;95.53;93484.31;4989827;28;20080;-87
2021/10/07 08:04:43;;;;;;;16.15;12.20;;;;;;;11.11;95.10;93434.88;4992830;28;20409;-86
2021/10/07 08:07:10;;;;;;;16.27;11.40;;;;;;;11.59;94.84;93490.16;5005990;28;20050;-87
2021/10/07 08:09:42;;;;;;;16.45;11.80;;;;;;;10.87;96.37;93437.94;5007245;28;20065;-86
2021/10/07 08:12:12;;;;;;;16.77;10.88;;;;;;;11.12;97.58;93485.28;4993230;28;20049;-86
2021/10/07 08:14:40;;;;;;;15.50;11.63;;;;;;;11.17;96.66;93481.13;4992997;28;20794;-86
2021/10/07 08:17:07;;;;;;;13.85;11.15;;;;;;;11.16;95.90;93438.38;4993551;28;20054;-86
2021/10/07 08:19:34;;;;;;;15.75;11.52;;;;;;;11.03;95.22;93417.91;4993589;28;20057;-87
2021/10/07 08:22:01;;;;;;;18.90;11.55;;;;;;;11.43;95.56;93479.38;4992939;28;20058;-85
2021/10/07 08:24:28;;;;;;;17.67;12.57;;;;;;;11.79;94.20;93476.38;4993152;28;20577;-86
2021/10/07 08:26:55;;;;;;;27.25;16.55;;;;;;;11.36;93.41;93412.53;4993707;28;20054;-86
2021/10/07 08:29:22;;;;;;;31.90;19.27;;;;;;;11.90;94.24;93465.38;4993727;28;20058;-85
2021/10/07 08:31:50;;;;;;;19.35;12.98;;;;;;;11.77;92.53;93428.44;4993282;28;20165;-85
2021/10/07 08:34:17;;;;;;;25.80;13.32;;;;;;;11.69;92.25;93412.50;4992796;28;20062;-85
2021/10/07 08:36:45;;;;;;;16.75;11.57;;;;;;;11.33;92.14;93420.69;4992971;28;20058;-86
2021/10/07 08:39:13;;;;;;;19.60;11.90;;;;;;;11.88;92.44;93485.38;4993163;28;20054;-86
2021/10/07 08:41:40;;;;;;;17.70;11.95;;;;;;;11.29;92.35;93382.75;4992618;28;20061;-85
2021/10/07 08:44:07;;;;;;;17.15;12.40;;;;;;;12.01;93.17;93497.38;4993357;28;20856;-84
2021/10/07 08:46:34;;;;;;;23.15;16.48;;;;;;;11.67;93.93;93430.69;4992757;28;20047;-84
2021/10/07 08:49:03;;;;;;;13.50;10.50;;;;;;;11.63;94.55;93466.34;4992855;28;20058;-85
2021/10/07 08:51:30;;;;;;;17.88;12.60;;;;;;;11.70;95.26;93478.38;4992845;28;20050;-84
2021/10/07 08:53:57;;;;;;;14.75;10.63;;;;;;;11.36;95.75;93429.75;4992757;28;20058;-84
2021/10/07 08:56:25;;;;;;;22.95;15.43;;;;;;;11.83;94.50;93472.34;4992696;28;20047;-85
2021/10/07 08:58:52;;;;;;;15.63;11.30;;;;;;;11.86;94.33;93477.09;4992445;28;20085;-85
2021/10/07 09:01:40;;;;;;;18.17;11.68;;;;;;;12.33;93.79;93473.34;4992380;28;20392;-84
2021/10/07 09:04:22;;;;;;;15.80;10.00;;;;;;;12.25;91.07;93449.44;4990133;28;20050;-83
2021/10/07 09:06:51;;;;;;;19.17;11.13;;;;;;;12.68;90.78;93473.56;4992353;28;20058;-84
2021/10/07 09:09:18;;;;;;;13.77;9.45;;;;;;;12.46;89.71;93410.59;4992219;28;20046;-85
2021/10/07 09:11:51;;;;;;;15.02;8.82;;;;;;;12.62;89.61;93428.03;5002122;28;20060;-84
2021/10/07 09:14:24;;;;;;;14.98;9.35;;;;;;;12.25;89.79;93456.38;5009537;28;20609;-85
2021/10/07 09:16:52;;;;;;;13.82;10.20;;;;;;;12.01;91.06;93402.09;5011573;28;20068;-85
2021/10/07 09:19:22;;;;;;;17.98;11.10;;;;;;;12.74;90.32;93448.72;5011847;28;20169;-85
2021/10/07 09:21:51;;;;;;;15.80;10.55;;;;;;;13.19;87.97;93446.75;5011692;28;20045;-86
2021/10/07 09:24:34;;;;;;;13.35;9.52;;;;;;;13.57;85.62;93447.44;5011400;28;20060;-85
2021/10/07 09:27:03;;;;;;;18.25;10.82;;;;;;;13.49;84.88;93404.69;5011753;28;20050;-85
2021/10/07 09:29:40;;;;;;;15.38;11.10;;;;;;;13.73;82.73;93396.94;5011378;28;20412;-87
2021/10/07 09:32:08;;;;;;;18.08;10.75;;;;;;;14.47;81.99;93465.41;5011618;28;20524;-86
2021/10/07 09:34:48;;;;;;;41.33;21.02;;;;;;;14.76;81.11;93454.38;5011584;28;20502;-86
2021/10/07 09:37:27;;;;;;;14.05;9.70;;;;;;;14.77;78.65;93438.59;5011329;28;20614;-86
2021/10/07 09:39:56;;;;;;;12.50;9.38;;;;;;;14.03;77.26;93372.81;5011751;28;20053;-85
2021/10/07 09:42:36;;;;;;;14.63;9.35;;;;;;;14.46;78.32;93394.06;5011250;28;20065;-85
2021/10/07 09:45:10;;;;;;;13.27;9.77;;;;;;;15.03;76.78;93426.16;5011395;28;20049;-87
2021/10/07 09:47:40;;;;;;;14.48;9.45;;;;;;;14.72;76.01;93366.09;5011427;28;20136;-86
2021/10/07 09:50:18;;;;;;;11.65;9.00;;;;;;;15.06;75.03;93441.22;5011249;28;20184;-87
2021/10/07 09:52:48;;;;;;;14.63;9.52;;;;;;;14.27;78.74;93447.69;5011477;28;20061;-88
2021/10/07 09:55:16;;;;;;;15.07;8.98;;;;;;;14.23;79.05;93439.59;5010911;28;20061;-85
2021/10/07 09:57:57;;;;;;;15.25;10.48;;;;;;;14.23;79.24;93385.34;5011104;28;20413;-85
2021/10/07 10:00:27;;;;;;;11.60;8.95;;;;;;;14.64;78.98;93421.56;5010864;28;20054;-87
2021/10/07 10:02:55;;;;;;;15.25;9.88;;;;;;;15.17;77.27;93439.59;5010719;28;20053;-86
2021/10/07 10:05:24;;;;;;;15.35;10.93;;;;;;;15.48;75.26;93442.72;5010874;28;20057;-87
2021/10/07 10:07:51;;;;;;;13.27;9.55;;;;;;;15.30;73.17;93391.16;5010910;28;20528;-85
2021/10/07 10:10:24;;;;;;;11.25;7.40;;;;;;;14.64;72.72;93379.41;5010541;28;20557;-86
2021/10/07 10:12:53;;;;;;;12.60;9.13;;;;;;;14.79;74.93;93384.88;5011260;28;20493;-85
2021/10/07 10:15:21;;;;;;;11.38;8.70;;;;;;;14.76;74.44;93428.53;5011171;28;20461;-85
2021/10/07 10:17:48;;;;;;;12.15;9.13;;;;;;;14.76;75.92;93436.28;5011118;28;20465;-85
2021/10/07 10:20:19;;;;;;;14.30;9.90;;;;;;;14.64;75.94;93349.16;5011423;28;20140;-86
2021/10/07 10:22:55;;;;;;;12.20;9.13;;;;;;;14.68;75.26;93362.41;5011389;28;20054;-88
2021/10/07 10:25:23;;;;;;;11.05;8.85;;;;;;;14.27;75.26;93370.94;5010988;28;20050;-86
2021/10/07 10:27:56;;;;;;;16.63;11.15;;;;;;;14.22;76.66;93359.75;5010081;28;20446;-86
2021/10/07 10:30:26;;;;;;;12.13;8.32;;;;;;;14.82;75.19;93404.31;5011094;28;20502;-86
2021/10/07 10:32:55;;;;;;;13.60;8.48;;;;;;;14.54;74.11;93325.72;5011358;28;20050;-85
2021/10/07 10:35:34;;;;;;;13.70;8.73;;;;;;;15.23;73.61;93391.31;5011059;28;20055;-85
2021/10/07 10:38:04;;;;;;;15.75;10.15;;;;;;;14.88;72.98;93332.78;5011020;28;20158;-86
2021/10/07 10:40:31;;;;;;;17.67;12.98;;;;;;;15.39;72.21;93383.78;5010830;28;20149;-85
2021/10/07 10:43:34;;;;;;;19.83;13.50;;;;;;;15.63;71.61;93390.38;5010785;28;20600;-85
2021/10/07 10:46:16;;;;;;;16.92;11.23;;;;;;;15.90;71.17;93407.06;4963615;28;20400;-85
2021/10/07 10:49:03;;;;;;;12.07;9.05;;;;;;;15.43;70.27;93328.72;4959904;28;20675;-86
2021/10/07 10:51:34;;;;;;;13.77;9.27;;;;;;;15.43;71.06;93346.06;4981501;28;20172;-86
2021/10/07 10:54:05;;;;;;;11.82;8.10;;;;;;;15.02;73.08;93403.09;4990678;28;20086;-85
2021/10/07 10:56:34;;;;;;;9.20;6.18;;;;;;;13.59;71.76;93344.75;4990991;28;20047;-86
2021/10/07 10:59:18;;;;;;;10.05;8.07;;;;;;;14.50;75.71;93396.97;4990783;28;20588;-86
2021/10/07 11:01:46;;;;;;;17.67;9.48;;;;;;;13.68;75.01;93337.47;5000163;28;20408;-85
2021/10/07 11:04:32;;;;;;;18.52;10.73;;;;;;;13.68;80.14;93396.81;5010417;28;20394;-84
2021/10/07 11:07:20;;;;;;;19.27;11.60;;;;;;;12.95;85.58;93382.19;5010316;28;20061;-82
2021/10/07 11:10:04;;;;;;;11.23;8.20;;;;;;;12.61;84.81;93400.69;5010691;28;20050;-85
2021/10/07 11:12:43;;;;;;;27.23;18.50;;;;;;;12.08;84.89;93340.28;5010496;28;20064;-85
2021/10/07 11:15:11;;;;;;;11.20;7.80;;;;;;;11.72;89.46;93329.72;5010432;28;20054;-89
2021/10/07 11:17:40;;;;;;;21.08;11.48;;;;;;;12.17;93.16;93387.91;5010683;28;20081;-85
2021/10/07 11:20:08;;;;;;;16.30;10.25;;;;;;;12.08;92.55;93386.63;4996923;28;20136;-83
2021/10/07 11:22:35;;;;;;;13.55;9.43;;;;;;;12.10;91.96;93393.13;4991062;28;20469;-83
2021/10/07 11:25:06;;;;;;;11.50;7.88;;;;;;;11.81;95.51;93386.84;4991436;28;20042;-84
2021/10/07 11:27:35;;;;;;;18.08;13.85;;;;;;;11.94;100.00;93388.53;4991626;28;20100;-82
2021/10/07 11:30:04;;;;;;;10.45;8.13;;;;;;;11.86;96.79;93382.63;4990241;28;20449;-83